createdAt,value
2022-09-30T00:01:48.152Z,66.99
2022-09-30T00:04:22.702Z,66.98
2022-09-30T00:06:52.560Z,66.62
2022-09-30T00:09:21.851Z,66.25
2022-09-30T00:11:49.641Z,65.66
2022-09-30T00:14:21.721Z,65.62
2022-09-30T00:16:49.908Z,65.46
2022-09-30T00:19:17.709Z,65.38
2022-09-30T00:21:45.619Z,64.98
2022-09-30T00:24:13.730Z,64.16
2022-09-30T00:26:41.510Z,63.72
2022-09-30T00:29:11.122Z,63.07
2022-09-30T00:31:39.320Z,63.11
2022-09-30T00:34:07.587Z,63.36
2022-09-30T00:36:40.305Z,63.78
2022-09-30T00:39:11.793Z,64.30
2022-09-30T00:41:39.688Z,64.13
2022-09-30T00:45:03.434Z,63.98
2022-09-30T00:47:42.102Z,64.38
2022-09-30T00:50:16.902Z,64.61
2022-09-30T00:53:31.241Z,64.70
2022-09-30T00:56:22.378Z,67.02
2022-09-30T00:59:16.547Z,68.60
2022-09-30T01:01:44.567Z,68.30
2022-09-30T01:04:22.159Z,68.64
2022-09-30T01:07:09.145Z,66.44
2022-09-30T01:09:40.637Z,66.12
2022-09-30T01:12:18.773Z,67.45
2022-09-30T01:14:53.210Z,67.32
2022-09-30T01:17:59.963Z,67.30
2022-09-30T01:21:18.857Z,69.66
2022-09-30T01:23:58.072Z,70.45
2022-09-30T01:27:05.561Z,71.04
2022-09-30T01:30:15.012Z,70.85
2022-09-30T01:33:09.575Z,71.05
2022-09-30T01:36:01.450Z,71.14
2022-09-30T01:38:43.751Z,70.97
2022-09-30T01:41:35.217Z,71.13
2022-09-30T01:44:25.209Z,71.51
2022-09-30T01:47:39.641Z,71.17
2022-09-30T01:50:21.982Z,70.78
2022-09-30T01:53:08.823Z,71.07
2022-09-30T01:55:45.005Z,70.71
2022-09-30T01:58:20.332Z,70.50
2022-09-30T02:00:53.297Z,70.26
2022-09-30T02:03:36.791Z,70.13
2022-09-30T02:06:20.620Z,70.36
2022-09-30T02:09:03.832Z,70.30
2022-09-30T02:11:38.480Z,70.31
2022-09-30T02:14:34.377Z,70.19
2022-09-30T02:17:29.047Z,70.29
2022-09-30T02:20:12.609Z,70.53
2022-09-30T02:22:52.329Z,70.63
2022-09-30T02:25:35.868Z,70.90
2022-09-30T02:28:08.441Z,70.67
2022-09-30T02:30:41.124Z,70.51
2022-09-30T02:33:17.597Z,70.21
2022-09-30T02:35:57.772Z,69.88
2022-09-30T02:38:37.189Z,69.99
2022-09-30T02:41:22.072Z,70.02
2022-09-30T02:43:52.404Z,69.74
2022-09-30T02:46:35.510Z,69.60
2022-09-30T02:49:22.444Z,69.47
2022-09-30T02:52:36.194Z,69.30
2022-09-30T02:55:38.594Z,69.73
2022-09-30T02:58:19.882Z,69.68
2022-09-30T03:00:49.093Z,69.61
2022-09-30T03:03:22.918Z,69.90
2022-09-30T03:05:51.944Z,70.14
2022-09-30T03:08:19.706Z,70.36
2022-09-30T03:10:51.057Z,70.39
2022-09-30T03:13:29.053Z,70.62
2022-09-30T03:16:22.950Z,70.30
2022-09-30T03:19:09.451Z,70.21
2022-09-30T03:22:10.966Z,70.78
2022-09-30T03:25:18.586Z,71.18
2022-09-30T03:28:00.196Z,71.41
2022-09-30T03:30:30.532Z,71.81
2022-09-30T03:33:24.581Z,71.80
2022-09-30T03:36:14.441Z,71.49
2022-09-30T03:39:06.040Z,71.33
2022-09-30T03:42:10.563Z,71.96
2022-09-30T03:44:59.910Z,72.19
2022-09-30T03:47:31.533Z,72.26
2022-09-30T03:50:07.013Z,72.55
2022-09-30T03:52:36.830Z,72.52
2022-09-30T03:55:08.659Z,72.46
2022-09-30T03:57:36.391Z,72.25
2022-09-30T04:00:06.235Z,72.74
2022-09-30T05:02:31.813Z,81.47
2022-09-30T05:05:00.681Z,81.47
2022-09-30T05:07:28.163Z,81.95
2022-09-30T05:09:55.638Z,82.36
2022-09-30T05:12:23.861Z,83.04
2022-09-30T05:14:51.304Z,83.22
2022-09-30T05:17:18.925Z,83.60
2022-09-30T05:19:46.618Z,84.21
2022-09-30T05:22:15.104Z,84.30
2022-09-30T05:24:42.548Z,84.90
2022-09-30T05:27:10.370Z,85.29
2022-09-30T05:29:37.853Z,85.34
2022-09-30T05:32:06.096Z,86.50
2022-09-30T05:34:34.045Z,86.96
2022-09-30T05:37:01.624Z,87.60
2022-09-30T05:39:29.069Z,88.23
2022-09-30T05:41:58.525Z,88.51
2022-09-30T05:44:26.015Z,88.45
2022-09-30T05:46:53.623Z,88.43
2022-09-30T05:49:22.156Z,88.32
2022-09-30T05:51:49.805Z,88.17
2022-09-30T05:54:17.241Z,88.15
2022-09-30T05:56:45.004Z,87.50
2022-09-30T05:59:12.486Z,87.06
2022-09-30T06:01:40.115Z,87.30
2022-09-30T06:04:07.928Z,86.80
2022-09-30T06:06:35.393Z,86.18
2022-09-30T06:09:03.037Z,86.03
2022-09-30T06:11:31.649Z,85.66
2022-09-30T06:13:59.187Z,85.41
2022-09-30T06:16:26.915Z,85.43
2022-09-30T06:18:55.401Z,84.92
2022-09-30T06:21:23.522Z,84.50
2022-09-30T06:23:51.126Z,84.65
2022-09-30T06:26:18.878Z,84.85
2022-09-30T06:28:46.403Z,85.18
2022-09-30T06:31:14.753Z,85.31
2022-09-30T06:33:43.192Z,85.41
2022-09-30T06:36:10.802Z,85.55
2022-09-30T06:38:40.204Z,85.37
2022-09-30T06:41:08.635Z,85.00
2022-09-30T06:43:46.060Z,84.44
2022-09-30T06:46:30.587Z,84.14
2022-09-30T06:49:13.428Z,83.88
2022-09-30T06:51:42.217Z,83.93
2022-09-30T06:54:10.550Z,84.00
2022-09-30T06:56:38.264Z,83.49
2022-09-30T06:59:06.112Z,83.25
2022-09-30T07:01:33.804Z,83.44
2022-09-30T07:04:08.029Z,83.18
2022-09-30T07:06:35.920Z,82.35
2022-09-30T07:09:03.847Z,81.82
2022-09-30T07:11:31.575Z,81.65
2022-09-30T07:13:59.370Z,81.44
2022-09-30T07:16:27.104Z,81.25
2022-09-30T07:18:55.020Z,81.17
2022-09-30T07:21:22.850Z,80.74
2022-09-30T07:23:52.830Z,80.44
2022-09-30T07:26:23.559Z,81.16
2022-09-30T07:28:52.796Z,80.81
2022-09-30T07:31:33.752Z,81.26
2022-09-30T07:34:09.422Z,81.50
2022-09-30T07:36:40.498Z,81.48
2022-09-30T07:39:11.047Z,80.76
2022-09-30T07:41:40.175Z,80.88
2022-09-30T07:44:14.304Z,81.07
2022-09-30T07:46:44.467Z,81.60
2022-09-30T07:49:24.779Z,81.27
2022-09-30T07:52:03.182Z,81.55
2022-09-30T07:54:38.737Z,81.45
2022-09-30T07:57:11.160Z,81.83
2022-09-30T07:59:41.702Z,82.03
2022-09-30T08:02:18.120Z,82.41
2022-09-30T08:04:46.629Z,82.25
2022-09-30T08:07:16.415Z,82.62
2022-09-30T08:09:44.361Z,82.36
2022-09-30T08:12:11.988Z,81.55
2022-09-30T08:14:39.781Z,81.28
2022-09-30T08:17:07.279Z,80.79
2022-09-30T08:19:35.802Z,82.08
2022-09-30T08:22:04.196Z,82.31
2022-09-30T08:24:32.124Z,81.71
2022-09-30T08:26:59.701Z,81.98
2022-09-30T08:29:54.320Z,81.48
2022-09-30T08:32:15.628Z,80.75
2022-09-30T08:34:43.525Z,80.06
2022-09-30T08:37:10.972Z,79.43
2022-09-30T08:39:39.085Z,78.16
2022-09-30T08:42:39.537Z,77.22
2022-09-30T08:45:19.553Z,76.76
2022-09-30T08:48:05.608Z,77.55
2022-09-30T08:50:50.074Z,77.91
2022-09-30T08:53:31.502Z,77.74
2022-09-30T08:56:02.763Z,78.17
2022-09-30T08:58:39.251Z,78.58
2022-09-30T09:01:48.493Z,77.32
2022-09-30T09:04:18.482Z,76.14
2022-09-30T09:07:19.608Z,75.94
2022-09-30T09:10:32.914Z,76.39
2022-09-30T09:13:37.260Z,77.82
2022-09-30T09:16:28.817Z,78.89
2022-09-30T09:19:11.807Z,77.94
2022-09-30T09:22:02.003Z,78.36
2022-09-30T09:24:46.238Z,78.23
2022-09-30T09:28:00.191Z,78.16
2022-09-30T09:30:43.592Z,77.96
2022-09-30T09:33:22.988Z,78.10
2022-09-30T09:36:13.029Z,76.97
2022-09-30T09:39:06.126Z,77.97
2022-09-30T09:41:56.219Z,76.46
2022-09-30T09:45:12.999Z,77.16
2022-09-30T09:47:45.708Z,77.32
2022-09-30T09:51:05.384Z,76.47
2022-09-30T09:53:53.637Z,76.79
2022-09-30T09:56:31.848Z,77.11
2022-09-30T09:59:20.072Z,76.88
2022-09-30T10:01:54.154Z,76.18
2022-09-30T10:04:33.309Z,75.28
2022-09-30T10:07:13.590Z,75.01
2022-09-30T10:09:43.192Z,75.75
2022-09-30T10:12:13.626Z,75.77
2022-09-30T10:15:12.296Z,73.00
2022-09-30T10:17:40.857Z,70.25
2022-09-30T10:20:31.728Z,69.57
2022-09-30T10:23:23.504Z,69.10
2022-09-30T10:26:14.665Z,66.83
2022-09-30T10:29:06.414Z,68.45
2022-09-30T10:31:40.889Z,68.69
2022-09-30T10:34:35.436Z,67.76
2022-09-30T10:37:23.801Z,65.45
2022-09-30T10:40:01.410Z,60.71
2022-09-30T10:42:40.750Z,59.31
2022-09-30T10:45:37.280Z,57.09
2022-09-30T10:48:16.580Z,55.70
2022-09-30T10:50:53.139Z,55.60
2022-09-30T10:53:30.899Z,54.98
2022-09-30T10:55:59.527Z,55.12
2022-09-30T10:58:48.607Z,54.05
2022-09-30T11:01:48.368Z,52.54
2022-09-30T11:04:24.477Z,52.62
2022-09-30T11:07:19.208Z,49.84
2022-09-30T11:10:08.907Z,49.24
2022-09-30T11:12:48.928Z,47.54
2022-09-30T11:15:45.854Z,46.28
2022-09-30T11:18:34.920Z,45.04
2022-09-30T11:21:23.598Z,46.93
2022-09-30T11:24:14.092Z,48.92
2022-09-30T11:27:06.952Z,50.25
2022-09-30T11:29:40.678Z,47.16
2022-09-30T11:32:55.105Z,43.91
2022-09-30T11:35:42.129Z,44.07
2022-09-30T11:38:46.246Z,43.69
2022-09-30T11:41:13.920Z,43.03
2022-09-30T11:44:21.951Z,42.28
2022-09-30T11:46:52.468Z,41.02
2022-09-30T11:49:25.976Z,41.00
2022-09-30T11:52:18.858Z,40.91
2022-09-30T11:55:23.673Z,40.04
2022-09-30T11:58:22.400Z,41.52
2022-09-30T12:00:59.262Z,42.37
2022-09-30T12:03:40.032Z,42.88
2022-09-30T12:06:22.921Z,43.25
2022-09-30T12:09:01.363Z,40.00
2022-09-30T12:12:08.567Z,40.18
2022-09-30T12:14:53.694Z,39.80
2022-09-30T12:18:10.975Z,39.84
2022-09-30T12:20:54.192Z,40.61
2022-09-30T12:23:39.624Z,41.57
2022-09-30T12:26:07.514Z,40.98
2022-09-30T12:29:04.706Z,41.32
2022-09-30T12:31:41.221Z,42.16
2022-09-30T12:34:48.360Z,42.43
2022-09-30T12:38:03.408Z,40.71
2022-09-30T12:41:35.919Z,42.34
2022-09-30T12:44:52.760Z,42.84
2022-09-30T12:47:38.587Z,42.63
2022-09-30T12:50:09.168Z,43.05
2022-09-30T12:52:38.376Z,43.51
2022-09-30T12:55:31.234Z,41.06
2022-09-30T12:58:01.452Z,42.15
2022-09-30T13:00:36.145Z,40.49
2022-09-30T13:03:15.903Z,40.61
2022-09-30T13:05:47.373Z,41.15
2022-09-30T13:08:36.625Z,41.11
2022-09-30T13:11:08.129Z,41.29
2022-09-30T13:14:43.655Z,43.48
2022-09-30T13:17:11.499Z,44.38
2022-09-30T13:19:51.980Z,47.06
2022-09-30T13:22:39.773Z,50.44
2022-09-30T13:25:16.678Z,50.35
2022-09-30T13:27:55.506Z,49.49
2022-09-30T13:30:24.780Z,49.41
2022-09-30T13:32:59.488Z,53.51
2022-09-30T13:35:37.251Z,56.34
2022-09-30T13:38:21.814Z,58.24
2022-09-30T13:41:22.785Z,58.25
2022-09-30T13:43:53.075Z,59.16
2022-09-30T13:46:43.191Z,61.22
2022-09-30T13:49:35.965Z,61.18
2022-09-30T13:52:16.575Z,59.81
2022-09-30T13:54:47.788Z,59.98
2022-09-30T13:57:23.538Z,61.97
2022-09-30T14:00:18.049Z,62.83
2022-09-30T14:03:32.687Z,62.55
2022-09-30T14:06:16.593Z,64.22
2022-09-30T14:09:13.980Z,67.72
2022-09-30T14:12:17.635Z,65.98
2022-09-30T14:15:37.939Z,66.37
2022-09-30T14:18:33.330Z,67.34
2022-09-30T14:21:34.109Z,68.38
2022-09-30T14:24:17.468Z,68.73
2022-09-30T14:27:28.079Z,68.36
2022-09-30T14:30:26.811Z,70.19
2022-09-30T14:33:09.335Z,70.70
2022-09-30T14:35:41.606Z,70.80
2022-09-30T14:38:18.193Z,71.15
2022-09-30T14:40:55.289Z,71.07
2022-09-30T14:43:40.349Z,69.10
2022-09-30T14:46:40.966Z,70.36
2022-09-30T14:49:16.566Z,70.90
2022-09-30T14:51:49.244Z,70.08
2022-09-30T14:54:26.677Z,70.31
2022-09-30T14:56:55.883Z,71.53
2022-09-30T14:59:27.671Z,72.29
2022-09-30T15:02:03.944Z,72.90
2022-09-30T15:04:38.961Z,72.81
2022-09-30T15:07:11.984Z,72.92
2022-09-30T15:09:46.556Z,73.36
2022-09-30T15:12:19.336Z,74.33
2022-09-30T15:14:54.829Z,75.40
2022-09-30T15:17:36.283Z,75.76
2022-09-30T15:20:32.670Z,75.57
2022-09-30T15:23:09.489Z,74.85
2022-09-30T15:25:37.569Z,74.66
2022-09-30T15:28:09.039Z,75.06
2022-09-30T15:30:36.672Z,77.03
2022-09-30T15:33:06.350Z,75.37
2022-09-30T15:35:34.059Z,73.20
2022-09-30T15:38:16.324Z,73.70
2022-09-30T15:41:09.700Z,73.17
2022-09-30T15:43:52.919Z,75.08
2022-09-30T15:46:26.018Z,74.99
2022-09-30T15:48:59.507Z,75.18
2022-09-30T15:51:33.627Z,75.22
2022-09-30T15:54:33.263Z,74.10
2022-09-30T15:57:04.531Z,73.23
2022-09-30T16:00:06.331Z,73.51
2022-09-30T16:02:35.490Z,74.63
2022-09-30T16:05:05.453Z,74.51
2022-09-30T16:07:33.320Z,75.11
2022-09-30T16:10:01.187Z,74.86
2022-09-30T16:12:36.217Z,74.56
2022-09-30T16:15:15.576Z,74.57
2022-09-30T16:17:50.166Z,75.35
2022-09-30T16:20:17.941Z,75.75
2022-09-30T16:22:45.382Z,75.95
2022-09-30T16:25:34.413Z,76.39
2022-09-30T16:28:14.310Z,76.01
2022-09-30T16:30:46.024Z,75.95
2022-09-30T16:33:15.596Z,76.31
2022-09-30T16:35:44.337Z,76.16
2022-09-30T16:38:18.291Z,76.10
2022-09-30T16:40:46.444Z,76.46
2022-09-30T16:43:14.370Z,76.11
2022-09-30T16:45:42.577Z,75.79
2022-09-30T16:48:19.265Z,75.45
2022-09-30T16:51:04.804Z,74.69
2022-09-30T16:53:32.727Z,73.96
2022-09-30T16:56:00.911Z,73.98
2022-09-30T16:58:28.762Z,72.68
2022-09-30T17:01:00.229Z,73.98
2022-09-30T17:03:28.792Z,73.31
2022-09-30T17:05:57.120Z,72.42
2022-09-30T17:08:24.908Z,72.04
2022-09-30T17:10:52.668Z,71.38
2022-09-30T17:13:20.358Z,70.43
2022-09-30T17:15:52.115Z,70.41
2022-09-30T17:18:20.302Z,70.41
2022-09-30T17:20:52.935Z,70.53
2022-09-30T17:23:25.412Z,70.70
2022-09-30T17:25:54.856Z,71.02
2022-09-30T17:28:23.018Z,71.36
2022-09-30T17:30:50.703Z,71.68
2022-09-30T17:33:21.218Z,71.38
2022-09-30T17:36:00.681Z,70.82
2022-09-30T17:38:29.445Z,70.37
2022-09-30T17:41:16.005Z,70.22
2022-09-30T17:43:45.757Z,70.06
2022-09-30T17:46:18.986Z,69.97
2022-09-30T17:48:47.065Z,69.84
2022-09-30T17:51:18.646Z,69.64
2022-09-30T17:53:47.053Z,68.98
2022-09-30T17:56:22.641Z,68.64
2022-09-30T17:58:51.174Z,67.92
2022-09-30T18:01:21.471Z,67.54
2022-09-30T18:03:53.131Z,66.97
2022-09-30T18:06:39.592Z,66.78
2022-09-30T18:09:07.310Z,67.00
2022-09-30T18:11:54.538Z,66.71
2022-09-30T18:14:22.217Z,66.26
2022-09-30T18:16:49.867Z,66.07
2022-09-30T18:19:17.841Z,66.05
2022-09-30T18:21:46.074Z,65.38
2022-09-30T18:24:13.790Z,65.69
2022-09-30T18:26:41.660Z,65.50
2022-09-30T18:29:09.507Z,65.23
2022-09-30T18:31:38.875Z,65.35
2022-09-30T18:34:25.652Z,65.42
2022-09-30T18:36:53.360Z,65.56
2022-09-30T18:39:21.578Z,65.37
2022-09-30T18:41:49.624Z,65.61
2022-09-30T18:44:17.202Z,65.51
2022-09-30T18:47:05.509Z,65.49
2022-09-30T18:49:33.109Z,65.77
2022-09-30T18:52:01.867Z,66.10
2022-09-30T18:54:30.057Z,66.20
2022-09-30T18:56:57.620Z,67.07
2022-09-30T18:59:26.235Z,67.35
2022-09-30T19:01:55.765Z,67.76
2022-09-30T19:04:23.390Z,68.01
2022-09-30T19:06:51.030Z,68.12
2022-09-30T19:09:20.442Z,68.66
2022-09-30T19:11:49.419Z,68.83
2022-09-30T19:14:17.457Z,69.17
2022-09-30T19:16:47.395Z,69.26
2022-09-30T19:19:16.205Z,69.28
2022-09-30T19:21:44.824Z,69.22
2022-09-30T19:24:12.878Z,69.44
2022-09-30T19:26:41.114Z,69.51
2022-09-30T19:29:11.124Z,69.67
2022-09-30T19:31:39.908Z,69.68
2022-09-30T19:34:11.456Z,69.24
2022-09-30T19:36:49.873Z,68.97
2022-09-30T19:39:19.283Z,68.67
2022-09-30T19:41:47.381Z,68.53
2022-09-30T19:44:19.034Z,67.49
2022-09-30T19:46:54.985Z,66.10
2022-09-30T19:49:23.747Z,65.59
2022-09-30T19:51:52.864Z,64.89
2022-09-30T19:54:37.355Z,64.64
2022-09-30T19:57:08.163Z,64.41
2022-09-30T19:59:36.059Z,64.36
2022-09-30T20:02:04.380Z,64.21
2022-09-30T20:04:34.402Z,63.66
2022-09-30T20:07:02.467Z,62.38
2022-09-30T20:09:30.292Z,61.24
2022-09-30T20:11:58.161Z,61.04
2022-09-30T20:14:44.938Z,61.19
2022-09-30T20:17:12.919Z,60.36
2022-09-30T20:19:40.562Z,59.95
2022-09-30T20:22:08.175Z,59.67
2022-09-30T20:24:37.989Z,59.43
2022-09-30T20:27:06.107Z,59.23
2022-09-30T20:29:34.154Z,58.84
2022-09-30T20:32:03.970Z,59.08
2022-09-30T20:34:34.487Z,58.95
2022-09-30T20:37:06.361Z,59.16
2022-09-30T20:39:34.698Z,59.26
2022-09-30T20:42:02.268Z,59.64
2022-09-30T20:44:30.812Z,59.70
2022-09-30T20:47:00.006Z,59.91
2022-09-30T20:49:28.744Z,60.20
2022-09-30T20:51:56.585Z,60.85
2022-09-30T20:54:24.895Z,60.92
2022-09-30T20:57:06.644Z,61.02
2022-09-30T20:59:35.396Z,61.19
2022-09-30T21:02:02.987Z,61.49
2022-09-30T21:04:31.515Z,61.57
2022-09-30T21:07:00.532Z,61.55
2022-09-30T21:09:37.217Z,61.38
2022-09-30T21:12:13.621Z,60.84
2022-09-30T21:14:43.668Z,59.94
2022-09-30T21:17:11.818Z,59.29
2022-09-30T21:19:40.009Z,58.76
2022-09-30T21:22:08.128Z,56.95
2022-09-30T21:24:40.680Z,56.54
2022-09-30T21:27:12.411Z,55.67
2022-09-30T21:29:43.892Z,55.60
2022-09-30T21:32:11.680Z,55.30
2022-09-30T21:34:40.094Z,55.17
2022-09-30T21:37:09.036Z,55.15
2022-09-30T21:39:38.555Z,55.44
2022-09-30T21:42:07.589Z,55.63
2022-09-30T21:44:35.532Z,55.37
2022-09-30T21:47:03.314Z,55.83
2022-09-30T21:49:30.946Z,55.80
2022-09-30T21:51:58.850Z,56.18
2022-09-30T21:54:27.746Z,55.76
2022-09-30T21:56:55.289Z,56.13
2022-09-30T21:59:25.637Z,56.38
2022-09-30T22:01:53.383Z,56.68
2022-09-30T22:04:21.049Z,56.98
2022-09-30T22:06:49.262Z,57.26
2022-09-30T22:09:16.810Z,57.45
2022-09-30T22:11:44.883Z,57.35
2022-09-30T22:14:12.804Z,57.38
2022-09-30T22:16:40.775Z,57.36
2022-09-30T22:19:09.291Z,57.29
2022-09-30T22:21:38.585Z,57.08
2022-09-30T22:24:09.106Z,57.25
2022-09-30T22:26:37.260Z,57.23
2022-09-30T22:29:13.019Z,56.75
2022-09-30T22:31:41.169Z,56.49
2022-09-30T22:34:32.432Z,56.31
2022-09-30T22:37:18.623Z,55.88
2022-09-30T22:39:46.479Z,55.61
2022-09-30T22:42:14.114Z,54.61
2022-09-30T22:44:41.751Z,53.98
2022-09-30T22:47:11.176Z,53.38
2022-09-30T22:49:38.841Z,53.41
2022-09-30T22:52:06.865Z,52.56
2022-09-30T22:54:36.667Z,52.22
2022-09-30T22:57:05.638Z,52.37
2022-09-30T22:59:33.505Z,51.43
2022-09-30T23:02:01.344Z,51.73
2022-09-30T23:04:29.102Z,51.09
2022-09-30T23:06:56.811Z,51.15
2022-09-30T23:09:25.247Z,51.12
2022-09-30T23:11:56.981Z,51.56
2022-09-30T23:14:25.126Z,51.38
2022-09-30T23:16:52.953Z,51.10
2022-09-30T23:19:21.072Z,50.87
2022-09-30T23:21:48.656Z,50.38
2022-09-30T23:24:16.562Z,50.42
2022-09-30T23:26:44.112Z,50.23
2022-09-30T23:29:14.015Z,50.25
2022-09-30T23:31:42.415Z,50.45
2022-09-30T23:34:10.314Z,50.30
2022-09-30T23:36:38.342Z,49.98
2022-09-30T23:39:20.256Z,50.39
2022-09-30T23:41:49.919Z,50.82
2022-09-30T23:44:18.879Z,51.28
2022-09-30T23:47:08.341Z,51.62
2022-09-30T23:49:36.220Z,52.03
2022-09-30T23:52:12.594Z,52.36
2022-09-30T23:54:44.605Z,52.61
2022-09-30T23:57:12.484Z,52.88
2022-09-30T23:59:40.089Z,53.25
